Time;durP1;ratioP1;P1;durP2;ratioP2;P2;SDS_P1;SDS_P2;PMS_P1;PMS_P2;Temp;Humidity;BMP_temperature;BMP_pressure;BME280_temperature;BME280_humidity;BME280_pressure;Samples;Min_cycle;Max_cycle;Signal;HPM_P1;HPM_P2
2023/01/29 00:01:11;;;;;;;;;75.50;58.25;;;;;3.37;77.65;99947.09;5041130;28;8818;-80
2023/01/29 00:03:40;;;;;;;;;68.75;57.50;;;;;3.82;76.75;99938.25;4985824;28;8862;-82
2023/01/29 00:06:11;;;;;;;;;70.50;57.75;;;;;3.64;76.98;99939.41;4969469;28;8874;-81
2023/01/29 00:08:40;;;;;;;;;71.25;52.25;;;;;3.98;75.27;99943.09;4988469;28;9620;-81
2023/01/29 00:11:11;;;;;;;;;73.50;56.75;;;;;4.25;74.61;99939.66;4972957;28;8854;-80
2023/01/29 00:13:39;;;;;;;;;70.50;58.00;;;;;3.71;76.24;99953.41;4972795;28;8883;-80
2023/01/29 00:16:09;;;;;;;;;70.00;57.50;;;;;4.18;74.01;99945.44;5048238;28;8900;-80
2023/01/29 00:18:38;;;;;;;;;74.50;56.00;;;;;3.80;75.60;99947.66;5031799;28;9014;-82
2023/01/29 00:21:09;;;;;;;;;69.50;56.00;;;;;3.78;75.35;99955.38;5048904;28;8849;-81
2023/01/29 00:23:38;;;;;;;;;77.25;56.25;;;;;4.09;75.08;99946.03;5048458;28;8862;-82
2023/01/29 00:26:07;;;;;;;;;74.75;58.50;;;;;3.78;75.97;99952.78;5032128;28;8858;-81
2023/01/29 00:28:37;;;;;;;;;60.75;51.25;;;;;3.53;76.51;99968.25;5015232;28;8842;-82
2023/01/29 00:31:07;;;;;;;;;63.00;52.25;;;;;3.35;77.70;99969.38;5071330;28;8829;-80
2023/01/29 00:33:36;;;;;;;;;68.25;56.50;;;;;3.99;76.03;99962.03;5055734;28;8960;-82
2023/01/29 00:36:08;;;;;;;;;67.75;55.25;;;;;4.05;75.02;99964.84;5134488;27;8903;-83
2023/01/29 00:38:37;;;;;;;;;71.25;57.50;;;;;3.80;76.00;99971.78;5117286;27;8839;-82
2023/01/29 00:46:41;;;;;;;;;67.75;54.75;;;;;3.50;77.13;99971.59;5115781;27;8845;-81
2023/01/29 00:49:10;;;;;;;;;67.25;52.25;;;;;3.75;76.73;99975.88;5063721;27;8858;-82
2023/01/29 00:51:39;;;;;;;;;72.50;57.00;;;;;3.93;74.94;99974.75;5113752;27;8845;-84
2023/01/29 00:54:08;;;;;;;;;55.75;45.50;;;;;3.69;75.61;99978.28;5085483;28;8838;-82
2023/01/29 00:56:37;;;;;;;;;77.50;61.25;;;;;3.70;75.53;99977.44;5071490;28;8876;-81
2023/01/29 00:59:07;;;;;;;;;73.25;58.00;;;;;3.77;75.61;99981.97;5078501;28;9739;-81
2023/01/29 01:04:22;;;;;;;;;53.00;45.25;;;;;3.99;75.15;99974.94;5055506;28;8861;-81
2023/01/29 01:06:52;;;;;;;;;62.50;49.50;;;;;3.49;76.33;99985.31;5021990;28;8845;-80
2023/01/29 01:12:07;;;;;;;;;68.75;54.50;;;;;3.22;77.70;99992.94;5070869;28;8885;-82
2023/01/29 01:14:37;;;;;;;;;74.25;58.75;;;;;3.45;77.36;99993.75;5070689;28;8870;-80
2023/01/29 01:17:06;;;;;;;;;66.50;54.25;;;;;3.78;76.32;99982.84;5078348;28;9682;-83
2023/01/29 01:19:34;;;;;;;;;66.50;54.50;;;;;4.04;75.07;99978.56;5049160;28;8889;-81
2023/01/29 01:22:03;;;;;;;;;70.75;52.00;;;;;3.69;75.63;99996.31;5033509;28;8836;-80
2023/01/29 01:24:32;;;;;;;;;71.25;56.00;;;;;3.39;77.37;99998.72;5054298;28;8863;-80
2023/01/29 01:27:01;;;;;;;;;70.50;55.25;;;;;3.32;77.64;99995.03;5103509;27;8885;-80
2023/01/29 01:29:30;;;;;;;;;72.75;57.25;;;;;3.89;75.67;99979.81;5129323;27;8854;-80
2023/01/29 01:32:01;;;;;;;;;75.00;58.50;;;;;3.19;77.53;99990.25;5112229;27;8997;-81
2023/01/29 01:34:29;;;;;;;;;75.00;58.50;;;;;3.21;78.19;99991.19;5120822;27;8933;-81
2023/01/29 01:36:58;;;;;;;;;65.25;54.00;;;;;3.83;76.50;99977.00;5108251;28;8845;-80
2023/01/29 01:39:27;;;;;;;;;64.00;48.25;;;;;3.67;76.04;99978.22;5109169;28;8949;-81
2023/01/29 01:41:57;;;;;;;;;63.50;49.00;;;;;3.19;78.09;99988.53;5125420;27;8862;-82
2023/01/29 01:44:55;;;;;;;;;69.50;57.25;;;;;3.42;77.82;99981.66;5129362;27;8866;-81
2023/01/29 01:47:30;;;;;;;;;73.00;56.50;;;;;3.51;76.61;99986.22;5112859;27;8846;-80
2023/01/29 01:50:07;;;;;;;;;71.00;57.50;;;;;3.43;77.16;99975.66;5094313;27;8846;-78
2023/01/29 01:52:41;;;;;;;;;52.00;43.75;;;;;4.07;75.21;99974.38;5071636;28;8844;-81
2023/01/29 01:55:13;;;;;;;;;71.00;57.00;;;;;3.72;75.62;99986.09;5087691;28;8882;-80
2023/01/29 01:57:45;;;;;;;;;66.25;50.50;;;;;4.21;74.86;99976.53;5087973;28;8844;-81
2023/01/29 02:00:17;;;;;;;;;70.25;53.25;;;;;4.53;73.11;99984.41;5135305;27;8827;-81
2023/01/29 02:11:18;;;;;;;;;69.50;55.75;;;;;3.89;75.03;99984.97;5118124;27;8875;-80
2023/01/29 02:13:52;;;;;;;;;67.00;52.00;;;;;3.66;76.12;99986.75;5132209;27;8870;-80
2023/01/29 02:16:26;;;;;;;;;73.00;57.75;;;;;3.17;77.98;99994.47;5150000;27;8890;-80
2023/01/29 02:18:58;;;;;;;;;68.75;52.00;;;;;3.25;78.94;99990.47;5132559;27;8811;-80
2023/01/29 02:21:50;;;;;;;;;72.00;58.00;;;;;3.48;77.21;99993.88;5133693;27;9591;-80
2023/01/29 02:24:59;;;;;;;;;71.75;54.75;;;;;3.55;76.71;99990.66;5111474;27;9396;-81
2023/01/29 02:27:37;;;;;;;;;54.50;46.00;;;;;3.62;77.22;99984.91;5033590;28;8860;-81
2023/01/29 02:30:15;;;;;;;;;73.00;57.50;;;;;3.45;77.29;99986.03;5032825;28;8855;-81
2023/01/29 02:32:57;;;;;;;;;68.00;51.25;;;;;3.48;76.86;99983.56;5050213;28;9663;-80
2023/01/29 02:35:32;;;;;;;;;38.50;27.00;;;;;3.42;77.60;99989.38;5053034;28;8855;-81
2023/01/29 02:38:12;;;;;;;;;58.75;49.75;;;;;3.31;77.99;99989.00;5051548;28;8847;-81
2023/01/29 02:40:46;;;;;;;;;69.00;53.50;;;;;3.26;77.51;99993.09;5049427;28;8867;-83
2023/01/29 02:43:25;;;;;;;;;69.75;57.75;;;;;3.21;78.02;100002.34;5050859;28;8857;-81
2023/01/29 02:46:06;;;;;;;;;68.75;53.00;;;;;3.73;77.22;99995.59;5069229;28;10202;-79
2023/01/29 02:48:41;;;;;;;;;77.25;59.00;;;;;3.22;78.02;100005.84;5065638;28;8860;-80
2023/01/29 02:51:19;;;;;;;;;68.25;53.75;;;;;2.94;79.16;100017.69;5039099;28;8977;-80
2023/01/29 02:53:55;;;;;;;;;67.25;52.00;;;;;3.17;78.48;100008.22;5002159;28;8859;-81
2023/01/29 02:56:30;;;;;;;;;73.25;56.75;;;;;3.20;78.29;100005.78;5049350;28;9679;-81
2023/01/29 02:59:05;;;;;;;;;72.50;57.25;;;;;3.29;78.40;100006.09;5077432;28;9622;-81
2023/01/29 03:01:42;;;;;;;;;72.00;55.25;;;;;3.26;78.37;100003.41;5028218;28;8844;-79
2023/01/29 03:04:14;;;;;;;;;69.75;53.00;;;;;3.13;78.85;100002.06;5032365;28;8843;-80
2023/01/29 03:06:48;;;;;;;;;72.75;54.50;;;;;3.29;78.35;100012.97;5105380;28;8836;-81
2023/01/29 03:09:25;;;;;;;;;71.75;56.50;;;;;2.90;79.41;100011.53;5072181;28;8844;-80
2023/01/29 03:12:03;;;;;;;;;67.00;49.75;;;;;2.87;80.55;100011.44;5088949;28;8993;-82
2023/01/29 03:17:27;;;;;;;;;63.25;52.00;;;;;3.32;78.10;100011.34;5061624;28;8862;-80
2023/01/29 03:19:56;;;;;;;;;73.00;54.50;;;;;3.42;77.95;100015.16;5068356;28;8875;-81
2023/01/29 03:22:27;;;;;;;;;73.75;54.50;;;;;3.53;76.50;100017.22;5051947;28;9029;-81
2023/01/29 03:33:46;;;;;;;;;66.75;51.00;;;;;3.77;76.27;100010.34;5088620;28;8855;-81
2023/01/29 03:36:19;;;;;;;;;62.25;52.25;;;;;3.62;75.78;100021.00;5085101;28;8972;-82
2023/01/29 03:38:48;;;;;;;;;59.75;49.00;;;;;4.00;75.10;100013.69;5082721;27;8914;-80
2023/01/29 03:41:25;;;;;;;;;39.25;31.75;;;;;3.60;76.14;100017.50;5059234;27;8834;-80
2023/01/29 03:44:00;;;;;;;;;50.50;45.75;;;;;3.35;77.54;100018.34;5071114;28;8869;-81
2023/01/29 03:46:36;;;;;;;;;69.75;53.75;;;;;3.65;77.13;100008.22;5072451;28;8865;-82
2023/01/29 03:49:15;;;;;;;;;70.25;54.75;;;;;3.74;76.29;100005.06;5068720;28;8844;-80
2023/01/29 03:51:55;;;;;;;;;69.25;54.75;;;;;3.24;77.41;100029.97;5075655;28;8953;-82
2023/01/29 03:54:32;;;;;;;;;70.00;57.75;;;;;3.37;77.44;100023.56;5052244;28;8887;-81
2023/01/29 03:57:14;;;;;;;;;76.25;56.50;;;;;3.31;77.52;100025.06;5068933;28;8853;-80
2023/01/29 03:59:53;;;;;;;;;69.50;53.25;;;;;3.33;77.55;100020.00;5052475;28;9587;-81
2023/01/29 04:02:50;;;;;;;;;68.25;53.75;;;;;3.41;77.79;100021.13;5068474;28;8841;-82
2023/01/29 04:05:25;;;;;;;;;75.50;58.25;;;;;2.98;78.81;100019.53;5052517;28;8856;-80
2023/01/29 04:08:11;;;;;;;;;65.00;53.00;;;;;3.78;76.60;100012.13;5069032;28;8977;-80
2023/01/29 04:10:43;;;;;;;;;67.50;54.00;;;;;3.28;77.60;100029.25;5052281;28;8898;-80
2023/01/29 04:13:16;;;;;;;;;71.00;55.75;;;;;3.35;78.06;100027.78;5068461;28;8860;-80
2023/01/29 04:15:53;;;;;;;;;67.75;54.75;;;;;3.39;77.39;100029.66;5038712;28;8893;-80
2023/01/29 04:18:34;;;;;;;;;57.00;48.50;;;;;3.18;78.29;100040.06;5060042;28;8847;-80
2023/01/29 04:21:11;;;;;;;;;68.75;52.50;;;;;3.51;77.24;100032.66;5067566;28;8829;-79
2023/01/29 04:23:39;;;;;;;;;79.25;61.50;;;;;3.31;77.25;100031.94;5052226;28;8853;-79
2023/01/29 04:26:34;;;;;;;;;67.00;56.00;;;;;3.11;77.91;100036.34;5051487;28;8984;-80
2023/01/29 04:29:20;;;;;;;;;70.50;56.50;;;;;2.99;78.82;100035.91;5067797;28;8871;-80
2023/01/29 04:32:03;;;;;;;;;64.75;48.50;;;;;3.47;77.44;100029.06;5018331;28;8867;-80
2023/01/29 04:34:43;;;;;;;;;70.50;57.25;;;;;3.59;76.55;100031.22;5051385;28;9469;-80
2023/01/29 04:37:19;;;;;;;;;63.00;53.25;;;;;3.63;76.75;100038.25;5042637;28;8874;-81
2023/01/29 04:39:56;;;;;;;;;72.00;55.50;;;;;3.55;76.79;100044.81;5031972;28;8962;-81
2023/01/29 04:42:31;;;;;;;;;72.00;55.25;;;;;3.34;77.22;100038.91;5050046;28;8861;-80
2023/01/29 04:45:08;;;;;;;;;40.50;34.00;;;;;3.84;76.62;100039.81;5036299;28;9082;-80
2023/01/29 04:47:47;;;;;;;;;74.00;59.75;;;;;3.44;76.82;100040.97;5066358;28;8849;-80
2023/01/29 04:50:21;;;;;;;;;70.50;55.00;;;;;3.50;76.24;100048.94;5071247;28;8869;-80
2023/01/29 04:53:00;;;;;;;;;77.50;55.50;;;;;3.62;76.36;100045.94;5103345;28;8824;-84
2023/01/29 04:55:36;;;;;;;;;73.50;58.75;;;;;3.25;76.96;100049.75;5090730;28;8906;-80
2023/01/29 04:58:12;;;;;;;;;69.75;54.25;;;;;3.68;76.64;100043.56;5091098;28;8871;-79
2023/01/29 05:00:43;;;;;;;;;55.25;50.25;;;;;3.65;76.52;100040.88;5087890;27;8972;-80
2023/01/29 05:03:14;;;;;;;;;71.50;56.00;;;;;4.17;74.81;100040.06;5130922;27;8845;-79
2023/01/29 05:05:46;;;;;;;;;77.25;58.50;;;;;3.35;77.07;100053.56;5129650;27;8865;-79
2023/01/29 05:08:21;;;;;;;;;70.50;53.50;;;;;3.45;76.64;100045.31;5131042;27;8972;-81
2023/01/29 05:10:52;;;;;;;;;67.75;55.75;;;;;3.45;76.62;100045.31;5078597;27;8933;-80
2023/01/29 05:13:23;;;;;;;;;71.50;57.50;;;;;3.11;78.16;100059.53;5131477;27;8841;-80
2023/01/29 05:15:57;;;;;;;;;74.00;56.75;;;;;3.45;77.39;100058.22;5096086;27;8948;-81
2023/01/29 05:18:26;;;;;;;;;71.00;56.50;;;;;3.28;77.93;100060.16;5101287;27;8859;-79
2023/01/29 05:20:57;;;;;;;;;65.25;54.75;;;;;3.01;79.46;100066.03;5133097;27;8870;-81
2023/01/29 05:23:27;;;;;;;;;68.75;53.50;;;;;3.08;78.44;100062.88;5116105;27;8882;-80
2023/01/29 05:25:56;;;;;;;;;70.75;55.00;;;;;3.00;79.00;100077.16;5123280;27;8852;-80
2023/01/29 05:28:24;;;;;;;;;72.25;57.25;;;;;3.21;78.33;100073.66;5131105;27;8873;-79
2023/01/29 05:30:56;;;;;;;;;71.50;58.00;;;;;2.91;79.61;100081.94;5094928;27;8869;-80
2023/01/29 05:33:26;;;;;;;;;71.75;57.75;;;;;3.12;78.46;100084.50;5112186;27;8877;-81
2023/01/29 05:35:56;;;;;;;;;71.75;54.75;;;;;3.07;78.59;100080.84;5111536;27;8990;-79
2023/01/29 05:38:25;;;;;;;;;71.50;57.50;;;;;3.08;78.46;100086.09;5111917;27;8880;-79
2023/01/29 05:40:58;;;;;;;;;79.75;61.00;;;;;3.11;78.97;100083.59;5111751;27;8851;-79
2023/01/29 05:43:27;;;;;;;;;59.50;48.50;;;;;3.28;78.55;100091.09;5111346;27;8856;-80
2023/01/29 05:45:58;;;;;;;;;69.75;53.50;;;;;2.87;79.62;100086.13;5112024;27;8990;-80
2023/01/29 05:48:28;;;;;;;;;73.25;60.50;;;;;2.80;79.66;100097.00;5069586;28;9008;-81
2023/01/29 05:51:00;;;;;;;;;73.25;56.25;;;;;2.83;79.82;100091.09;5069374;28;8954;-79
2023/01/29 05:53:30;;;;;;;;;77.50;60.75;;;;;2.89;79.22;100099.94;5052976;28;8898;-80
2023/01/29 05:56:03;;;;;;;;;78.25;60.50;;;;;2.97;79.44;100100.25;5032399;28;8884;-79
2023/01/29 05:58:34;;;;;;;;;72.75;57.75;;;;;3.02;78.70;100102.97;5049123;28;8971;-79
2023/01/29 06:01:11;;;;;;;;;71.00;54.75;;;;;2.71;79.90;100107.81;5065459;28;9051;-80
2023/01/29 06:03:40;;;;;;;;;75.25;60.25;;;;;2.68;79.91;100105.09;5049648;28;8849;-80
2023/01/29 06:06:09;;;;;;;;;63.50;52.50;;;;;2.96;78.88;100103.63;5032249;28;9048;-81
2023/01/29 06:08:38;;;;;;;;;79.75;65.25;;;;;3.04;79.12;100104.78;5053177;28;8900;-80
2023/01/29 06:11:10;;;;;;;;;76.50;58.00;;;;;3.03;79.02;100103.06;5033272;28;8865;-80
2023/01/29 06:13:40;;;;;;;;;73.50;53.50;;;;;2.98;78.91;100112.28;5049577;28;8862;-80
2023/01/29 06:16:10;;;;;;;;;75.33;60.67;;;;;2.77;79.20;100107.19;5045194;28;8881;-81
2023/01/29 06:18:40;;;;;;;;;75.50;57.50;;;;;2.72;79.40;100109.59;5032766;28;8897;-80
2023/01/29 06:21:11;;;;;;;;;73.25;57.00;;;;;2.69;79.64;100106.88;5052619;28;8924;-80
2023/01/29 06:23:40;;;;;;;;;71.75;54.25;;;;;2.96;78.39;100113.06;5069016;28;8930;-79
2023/01/29 06:26:13;;;;;;;;;73.50;59.75;;;;;2.85;79.33;100117.78;5083779;28;8854;-79
2023/01/29 06:28:42;;;;;;;;;72.50;55.50;;;;;3.05;78.45;100122.03;5090645;28;8853;-80
2023/01/29 06:31:11;;;;;;;;;74.25;58.00;;;;;2.98;78.11;100121.72;5098568;27;8938;-82
2023/01/29 06:34:00;;;;;;;;;56.75;48.00;;;;;3.27;77.33;100127.97;5111551;27;8864;-81
2023/01/29 06:36:29;;;;;;;;;73.00;55.50;;;;;2.96;78.52;100131.09;5104916;28;8847;-81
2023/01/29 06:38:57;;;;;;;;;70.50;56.50;;;;;3.07;77.08;100130.69;5089122;28;9059;-81
2023/01/29 06:41:27;;;;;;;;;47.00;40.50;;;;;3.21;76.87;100133.78;5038955;28;8836;-78
2023/01/29 06:43:56;;;;;;;;;63.25;52.50;;;;;3.39;76.81;100125.03;5106159;28;8844;-80
2023/01/29 06:46:25;;;;;;;;;67.00;54.50;;;;;3.20;77.82;100133.75;5091605;27;8885;-80
2023/01/29 06:48:54;;;;;;;;;69.00;56.75;;;;;3.45;76.26;100133.84;5099574;28;8852;-82
2023/01/29 06:51:23;;;;;;;;;60.50;49.50;;;;;3.16;76.74;100137.91;5089587;28;9682;-81
2023/01/29 06:53:53;;;;;;;;;73.50;60.75;;;;;3.06;77.50;100141.81;5072651;28;9568;-79
2023/01/29 06:56:22;;;;;;;;;65.75;53.75;;;;;3.18;77.16;100148.28;5124640;27;9711;-80
2023/01/29 06:58:53;;;;;;;;;71.25;57.50;;;;;3.07;78.14;100146.16;5111225;27;9649;-80
2023/01/29 07:01:21;;;;;;;;;69.25;55.25;;;;;3.42;76.94;100143.16;5095249;27;8849;-81
2023/01/29 07:04:04;;;;;;;;;65.75;52.50;;;;;3.09;77.47;100154.81;5089194;28;8862;-81
2023/01/29 07:06:33;;;;;;;;;71.25;55.75;;;;;3.13;77.66;100158.38;5107025;28;8855;-80
2023/01/29 07:09:02;;;;;;;;;70.00;56.25;;;;;3.23;77.39;100157.03;5111963;27;9565;-80
2023/01/29 07:11:31;;;;;;;;;68.75;56.75;;;;;2.93;77.97;100160.19;5094774;28;9667;-81
2023/01/29 07:14:01;;;;;;;;;67.00;55.75;;;;;3.00;78.51;100166.44;5095043;28;8889;-79
2023/01/29 07:16:30;;;;;;;;;70.75;52.25;;;;;2.92;78.55;100164.44;5107293;28;8856;-80
2023/01/29 07:18:59;;;;;;;;;74.00;57.25;;;;;2.87;78.89;100160.84;5111511;27;8837;-81
2023/01/29 07:21:28;;;;;;;;;78.50;60.25;;;;;2.87;78.60;100160.84;5077872;28;8899;-80
2023/01/29 07:23:57;;;;;;;;;66.50;55.75;;;;;2.83;78.75;100166.66;5112051;28;8987;-80
2023/01/29 07:26:26;;;;;;;;;79.25;60.75;;;;;2.89;78.65;100173.75;5112474;28;8841;-79
2023/01/29 07:28:55;;;;;;;;;82.25;61.00;;;;;2.75;79.44;100162.88;5100480;28;9668;-79
2023/01/29 07:31:25;;;;;;;;;82.00;63.00;;;;;2.82;79.58;100164.91;5123942;28;8845;-81
2023/01/29 07:33:54;;;;;;;;;72.25;58.25;;;;;2.76;79.92;100174.97;5124646;27;8818;-81
2023/01/29 07:36:23;;;;;;;;;72.25;57.00;;;;;2.72;79.23;100171.38;5113943;27;8858;-80
2023/01/29 07:38:53;;;;;;;;;72.25;57.75;;;;;2.69;80.20;100165.22;5111840;28;8860;-81
2023/01/29 07:41:22;;;;;;;;;77.75;61.00;;;;;2.71;80.20;100164.47;5113428;28;8837;-82
2023/01/29 07:43:51;;;;;;;;;74.75;58.75;;;;;2.74;79.55;100168.84;5095859;27;9456;-82
2023/01/29 07:46:20;;;;;;;;;74.50;60.75;;;;;2.60;79.59;100167.41;5128470;27;9008;-79
2023/01/29 07:48:50;;;;;;;;;75.00;61.50;;;;;2.60;80.49;100164.84;5096582;27;8839;-81
2023/01/29 07:51:20;;;;;;;;;79.50;60.25;;;;;2.77;79.97;100163.81;5125970;27;8862;-78
2023/01/29 07:53:49;;;;;;;;;70.00;57.00;;;;;2.77;79.21;100168.97;5111999;27;8853;-78
2023/01/29 07:56:17;;;;;;;;;52.75;48.25;;;;;2.65;79.40;100171.06;5121095;27;8953;-77
2023/01/29 07:58:46;;;;;;;;;68.00;53.50;;;;;2.72;79.38;100176.53;5128522;27;8958;-79
2023/01/29 08:01:15;;;;;;;;;67.50;55.75;;;;;2.88;78.45;100175.44;5109117;27;8863;-81
2023/01/29 08:03:44;;;;;;;;;76.50;60.50;;;;;2.97;79.00;100177.53;5128323;27;8858;-80
2023/01/29 08:06:14;;;;;;;;;73.50;59.50;;;;;2.91;78.84;100174.69;5068940;27;8853;-78
2023/01/29 08:08:43;;;;;;;;;69.50;57.25;;;;;2.68;78.33;100178.91;5118825;27;8835;-79
2023/01/29 08:11:11;;;;;;;;;61.75;50.25;;;;;2.88;78.58;100182.31;5102116;27;8868;-79
2023/01/29 08:13:40;;;;;;;;;68.75;54.00;;;;;2.75;78.25;100191.22;5105753;27;8855;-77
2023/01/29 08:16:09;;;;;;;;;72.00;53.50;;;;;2.76;77.96;100182.69;5118032;27;8863;-79
2023/01/29 08:18:41;;;;;;;;;62.00;48.50;;;;;2.93;77.54;100180.81;5109939;27;8849;-78
2023/01/29 08:21:10;;;;;;;;;65.00;53.75;;;;;2.86;75.22;100189.97;5115017;27;8883;-79
2023/01/29 08:23:42;;;;;;;;;60.00;45.50;;;;;3.19;75.85;100193.81;5103476;27;8857;-78
2023/01/29 08:26:11;;;;;;;;;60.25;51.00;;;;;3.12;74.67;100187.56;5093898;28;8882;-81
2023/01/29 08:28:40;;;;;;;;;56.25;46.25;;;;;2.91;75.37;100193.63;5119320;27;8876;-81
2023/01/29 08:31:13;;;;;;;;;71.00;53.75;;;;;3.12;74.37;100195.31;5109066;27;9915;-78
2023/01/29 08:33:43;;;;;;;;;62.50;49.50;;;;;3.48;74.16;100193.28;5094243;27;8876;-79
2023/01/29 08:36:12;;;;;;;;;78.50;63.50;;;;;3.98;73.15;100200.25;5127356;27;8837;-77
2023/01/29 08:38:42;;;;;;;;;65.50;52.25;;;;;4.02;71.63;100202.13;5091681;27;8860;-77
2023/01/29 08:41:11;;;;;;;;;59.75;51.75;;;;;4.02;72.49;100207.28;5107351;27;8802;-77
2023/01/29 08:43:40;;;;;;;;;63.25;52.25;;;;;3.94;72.85;100208.72;5091233;27;8859;-78
2023/01/29 08:46:09;;;;;;;;;71.75;55.50;;;;;3.64;73.02;100217.06;5110657;27;8941;-77
2023/01/29 08:48:38;;;;;;;;;70.25;55.75;;;;;3.41;75.08;100218.75;5093990;27;8829;-80
2023/01/29 08:51:09;;;;;;;;;76.00;59.25;;;;;3.76;73.65;100214.06;5128923;27;9002;-80
2023/01/29 08:53:38;;;;;;;;;67.50;51.50;;;;;3.84;73.51;100212.66;5053891;27;8860;-79
2023/01/29 08:56:08;;;;;;;;;69.25;58.25;;;;;3.99;72.85;100212.31;5131759;27;8855;-77
2023/01/29 08:58:37;;;;;;;;;64.75;54.50;;;;;3.87;72.91;100213.63;5093572;27;8853;-79
2023/01/29 09:01:07;;;;;;;;;65.50;52.00;;;;;3.63;73.09;100215.28;5067342;28;8837;-80
2023/01/29 09:03:39;;;;;;;;;55.75;45.50;;;;;3.69;72.88;100219.00;5081336;28;8846;-80
2023/01/29 09:06:09;;;;;;;;;72.75;59.75;;;;;3.57;73.51;100213.34;5069186;28;8846;-78
2023/01/29 09:08:39;;;;;;;;;67.50;53.50;;;;;3.54;74.75;100212.38;5069393;28;8830;-80
2023/01/29 09:11:10;;;;;;;;;76.50;60.25;;;;;3.48;74.79;100213.91;5042798;28;8862;-77
2023/01/29 09:13:39;;;;;;;;;72.25;60.50;;;;;3.34;76.01;100227.06;5026992;28;8874;-82
2023/01/29 09:16:08;;;;;;;;;78.50;63.00;;;;;3.10;76.27;100225.25;4996831;28;8830;-80
2023/01/29 09:18:37;;;;;;;;;69.50;53.25;;;;;3.09;76.41;100215.78;5046200;28;8861;-79
2023/01/29 09:21:06;;;;;;;;;74.25;60.50;;;;;3.06;76.98;100219.13;5013086;28;8863;-79
2023/01/29 09:23:35;;;;;;;;;68.00;57.50;;;;;3.36;75.81;100222.84;5029756;28;9003;-80
2023/01/29 09:26:04;;;;;;;;;75.25;59.00;;;;;3.20;75.57;100214.50;4995760;28;8858;-79
2023/01/29 09:28:35;;;;;;;;;80.25;61.50;;;;;3.35;75.35;100215.94;5044868;28;8893;-80
2023/01/29 09:31:04;;;;;;;;;71.75;56.50;;;;;3.31;74.74;100209.78;5044991;28;9020;-79
2023/01/29 09:33:33;;;;;;;;;72.75;54.25;;;;;3.28;75.13;100218.25;5073307;28;8869;-79
2023/01/29 09:36:03;;;;;;;;;69.25;54.50;;;;;3.54;73.54;100214.97;5084042;28;8848;-81
2023/01/29 09:38:32;;;;;;;;;61.50;52.25;;;;;3.42;73.92;100208.50;5070274;28;8850;-80
2023/01/29 09:41:09;;;;;;;;;72.25;59.25;;;;;3.29;74.89;100202.00;5078692;28;8867;-80
2023/01/29 09:43:48;;;;;;;;;75.75;57.50;;;;;3.42;74.05;100199.88;5083891;28;8858;-79
2023/01/29 09:46:22;;;;;;;;;61.50;48.50;;;;;3.69;73.53;100200.06;5100263;28;8841;-79
2023/01/29 09:49:00;;;;;;;;;64.50;52.25;;;;;3.69;73.49;100200.06;5108314;27;8842;-79
2023/01/29 09:51:36;;;;;;;;;69.75;55.00;;;;;3.37;73.45;100201.41;5079580;27;8853;-80
2023/01/29 09:54:16;;;;;;;;;61.00;49.50;;;;;3.26;73.64;100208.72;5122962;27;10208;-80
2023/01/29 09:56:46;;;;;;;;;58.50;51.75;;;;;3.51;73.27;100197.66;5084178;27;8898;-77
2023/01/29 09:59:19;;;;;;;;;58.25;49.75;;;;;3.44;73.43;100193.06;5091010;28;8977;-81
2023/01/29 10:01:59;;;;;;;;;76.00;58.00;;;;;3.56;73.08;100187.53;5076437;28;8816;-77
2023/01/29 10:05:08;;;;;;;;;66.50;52.00;;;;;3.77;71.29;100188.31;5089909;28;8969;-79
2023/01/29 10:08:22;;;;;;;;;64.00;48.50;;;;;3.62;71.87;100180.88;5106372;28;8954;-78
2023/01/29 10:10:59;;;;;;;;;70.25;56.50;;;;;3.78;71.64;100174.63;5060011;28;9583;-78
2023/01/29 10:13:40;;;;;;;;;66.75;54.00;;;;;3.83;71.49;100175.66;5110177;27;8866;-78
2023/01/29 10:16:27;;;;;;;;;64.75;50.75;;;;;3.87;70.67;100166.31;5089552;28;8867;-76
2023/01/29 10:19:22;;;;;;;;;71.25;57.25;;;;;3.65;71.64;100175.00;5089428;28;8851;-80
2023/01/29 10:22:14;;;;;;;;;72.50;58.00;;;;;3.33;71.84;100172.06;5105795;28;8921;-78
2023/01/29 10:24:52;;;;;;;;;62.25;53.75;;;;;3.32;72.20;100180.59;5105892;28;8881;-77
2023/01/29 10:27:22;;;;;;;;;58.75;51.00;;;;;3.10;72.22;100181.44;5065732;28;8853;-79
2023/01/29 10:29:55;;;;;;;;;76.00;57.50;;;;;3.27;72.48;100175.28;5126903;27;8943;-79
2023/01/29 10:32:27;;;;;;;;;77.00;58.25;;;;;3.30;71.17;100167.66;5096020;28;8845;-78
2023/01/29 10:34:58;;;;;;;;;72.50;56.75;;;;;3.11;72.69;100160.91;5112184;27;8906;-76
2023/01/29 10:37:36;;;;;;;;;60.75;49.50;;;;;3.46;71.71;100156.25;5108752;27;9572;-78
2023/01/29 10:40:20;;;;;;;;;56.50;49.75;;;;;3.64;71.27;100161.19;5119860;27;9052;-76
2023/01/29 10:42:57;;;;;;;;;70.75;57.50;;;;;3.49;71.49;100170.94;5106637;27;8973;-77
2023/01/29 10:45:34;;;;;;;;;76.50;60.50;;;;;3.45;72.12;100164.78;5087914;27;8861;-77
2023/01/29 10:48:40;;;;;;;;;72.25;56.00;;;;;3.43;71.74;100160.41;5074572;27;8836;-78
2023/01/29 10:51:21;;;;;;;;;66.00;54.75;;;;;3.49;71.80;100161.50;5054305;27;8863;-76
2023/01/29 10:54:02;;;;;;;;;59.50;50.75;;;;;3.31;71.00;100163.41;5105877;27;9709;-79
2023/01/29 10:56:45;;;;;;;;;65.00;50.75;;;;;3.44;71.23;100147.56;5073900;27;9074;-79
2023/01/29 10:59:36;;;;;;;;;69.25;56.25;;;;;3.59;69.62;100149.84;5115940;27;8837;-77
2023/01/29 11:02:16;;;;;;;;;70.25;56.00;;;;;3.56;70.22;100159.16;5106358;27;8910;-77
2023/01/29 11:04:47;;;;;;;;;67.25;53.50;;;;;3.84;70.27;100143.00;5112501;27;8864;-76
2023/01/29 11:07:19;;;;;;;;;69.00;57.75;;;;;4.38;70.04;100139.72;5117816;27;9655;-78
2023/01/29 11:09:56;;;;;;;;;68.50;50.75;;;;;4.36;66.91;100139.66;5085743;27;8874;-80
2023/01/29 11:12:30;;;;;;;;;71.00;54.75;;;;;3.64;68.57;100137.97;5124748;27;8849;-80
2023/01/29 11:15:05;;;;;;;;;67.50;52.50;;;;;3.36;69.10;100148.97;5105050;27;8880;-81
2023/01/29 11:17:34;;;;;;;;;66.75;48.50;;;;;3.43;69.33;100137.19;5126125;27;8858;-77
2023/01/29 11:20:25;;;;;;;;;58.75;50.25;;;;;3.50;70.04;100137.47;5110095;27;8877;-78
2023/01/29 11:22:55;;;;;;;;;62.75;52.00;;;;;3.65;69.19;100134.59;5125521;27;8846;-78
2023/01/29 11:25:26;;;;;;;;;50.25;42.50;;;;;3.33;69.01;100130.81;5067621;28;8828;-80
2023/01/29 11:27:56;;;;;;;;;42.75;39.75;;;;;3.28;69.29;100132.34;5044129;28;8950;-81
2023/01/29 11:30:27;;;;;;;;;40.00;35.50;;;;;3.29;69.34;100129.81;5031649;28;8963;-79
2023/01/29 11:33:07;;;;;;;;;50.25;45.00;;;;;3.60;69.67;100132.66;5045158;28;8996;-78
2023/01/29 11:35:38;;;;;;;;;61.25;50.25;;;;;3.73;70.45;100124.56;5052148;28;8863;-77
2023/01/29 11:38:18;;;;;;;;;50.00;45.25;;;;;4.12;68.71;100126.81;5064754;28;8883;-79
2023/01/29 11:40:47;;;;;;;;;56.00;46.50;;;;;4.32;67.70;100127.47;5048764;28;8977;-78
2023/01/29 11:43:29;;;;;;;;;44.00;39.25;;;;;3.82;69.07;100129.16;5081752;28;8884;-77
2023/01/29 11:46:02;;;;;;;;;60.75;47.75;;;;;3.52;69.42;100140.13;5043036;28;8874;-78
2023/01/29 11:48:41;;;;;;;;;51.75;45.50;;;;;3.47;69.19;100132.19;5060684;28;8861;-77
2023/01/29 11:51:22;;;;;;;;;58.50;47.25;;;;;3.58;69.04;100142.91;5047898;28;9030;-79
2023/01/29 11:53:55;;;;;;;;;48.75;41.50;;;;;3.49;69.30;100146.03;5043517;28;8941;-78
2023/01/29 11:56:29;;;;;;;;;50.50;45.50;;;;;3.50;69.58;100145.22;5036137;28;8907;-79
2023/01/29 11:58:58;;;;;;;;;56.50;50.50;;;;;3.67;69.81;100148.44;5015240;28;9583;-78
2023/01/29 12:01:33;;;;;;;;;52.25;48.75;;;;;3.79;68.83;100147.97;5048309;28;8989;-78
2023/01/29 12:04:04;;;;;;;;;53.25;44.50;;;;;3.96;67.98;100140.00;5081984;28;8895;-82
2023/01/29 12:06:38;;;;;;;;;29.00;23.25;;;;;4.01;67.70;100139.31;5054652;28;9083;-80
2023/01/29 12:09:12;;;;;;;;;58.00;46.00;;;;;4.06;67.93;100137.78;5090689;28;8861;-80
2023/01/29 12:11:43;;;;;;;;;47.50;45.00;;;;;3.76;68.46;100144.41;5077488;28;8839;-78
2023/01/29 12:14:26;;;;;;;;;53.50;43.25;;;;;3.78;68.38;100142.75;5070954;28;8864;-81
2023/01/29 12:17:01;;;;;;;;;56.50;49.75;;;;;3.73;67.31;100134.00;5107264;28;8833;-81
2023/01/29 12:19:38;;;;;;;;;60.50;48.75;;;;;3.76;67.92;100129.81;5055185;28;8926;-77
2023/01/29 12:22:18;;;;;;;;;57.25;48.25;;;;;3.87;67.37;100125.91;5107923;28;8860;-79
2023/01/29 12:24:52;;;;;;;;;59.50;48.25;;;;;3.64;67.81;100134.53;5088737;28;8959;-82
2023/01/29 12:27:29;;;;;;;;;53.25;46.50;;;;;3.71;68.46;100134.81;5090012;28;8860;-86